Time;durP1;ratioP1;P1;durP2;ratioP2;P2;SDS_P1;SDS_P2;PMS_P1;PMS_P2;Temp;Humidity;BMP_temperature;BMP_pressure;BME280_temperature;BME280_humidity;BME280_pressure;Samples;Min_cycle;Max_cycle;Signal;HPM_P1;HPM_P2
2022/06/02 00:02:06;;;;;;;5.13;3.63;;;8.90;99.90;;;;;;5042914;28;20039;-94
2022/06/02 00:04:49;;;;;;;5.50;3.70;;;8.90;99.90;;;;;;5043370;28;20132;-94
2022/06/02 00:07:30;;;;;;;6.43;3.58;;;8.90;99.90;;;;;;5049767;28;20056;-94
2022/06/02 00:10:18;;;;;;;6.75;3.25;;;8.90;99.90;;;;;;5050081;28;20037;-93
2022/06/02 00:13:09;;;;;;;5.38;3.45;;;8.80;99.90;;;;;;5048932;28;20034;-93
2022/06/02 00:15:41;;;;;;;4.47;3.40;;;8.80;99.90;;;;;;5042031;28;20029;-93
2022/06/02 00:18:21;;;;;;;5.65;3.80;;;8.70;99.90;;;;;;5043950;28;20056;-94
2022/06/02 00:20:56;;;;;;;6.68;4.10;;;8.70;99.90;;;;;;5043263;28;20071;-93
2022/06/02 00:23:53;;;;;;;7.63;4.18;;;8.60;99.90;;;;;;5044004;28;20060;-94
2022/06/02 00:26:40;;;;;;;8.13;3.78;;;8.60;99.90;;;;;;5043951;28;20501;-94
2022/06/02 00:29:14;;;;;;;7.40;3.80;;;8.50;99.90;;;;;;5043470;28;20095;-94
2022/06/02 00:31:45;;;;;;;4.72;4.05;;;8.50;99.90;;;;;;5043197;28;20505;-93
2022/06/02 00:34:26;;;;;;;6.05;4.25;;;8.50;99.90;;;;;;5040173;28;20072;-93
2022/06/02 00:37:02;;;;;;;6.40;4.65;;;8.50;99.90;;;;;;5048712;28;20033;-94
2022/06/02 00:39:31;;;;;;;6.05;4.32;;;8.50;99.90;;;;;;5040833;28;20033;-94
2022/06/02 00:42:25;;;;;;;8.95;4.57;;;8.40;99.90;;;;;;5042927;28;20052;-95
2022/06/02 00:44:58;;;;;;;6.75;4.07;;;8.40;99.90;;;;;;5044315;28;20036;-94
2022/06/02 00:47:28;;;;;;;7.22;3.53;;;8.30;99.90;;;;;;5046182;28;20021;-94
2022/06/02 00:50:05;;;;;;;8.05;4.65;;;8.30;99.90;;;;;;5045060;28;20116;-93
2022/06/02 00:53:12;;;;;;;7.82;4.18;;;8.20;99.90;;;;;;5042299;28;20060;-94
2022/06/02 00:58:39;;;;;;;7.82;4.30;;;8.10;99.90;;;;;;5048672;28;20359;-94
2022/06/02 01:01:29;;;;;;;7.40;4.60;;;8.10;99.90;;;;;;5048851;28;20072;-92
2022/06/02 01:03:56;;;;;;;6.03;4.05;;;8.10;99.90;;;;;;5043557;28;20056;-94
2022/06/02 01:06:40;;;;;;;5.47;4.35;;;8.00;99.90;;;;;;5045580;28;20084;-90
2022/06/02 01:09:12;;;;;;;8.93;4.20;;;7.90;99.90;;;;;;5043128;28;20041;-95
2022/06/02 01:11:40;;;;;;;5.93;4.45;;;7.90;99.90;;;;;;5043420;28;20025;-92
2022/06/02 01:14:15;;;;;;;6.30;4.75;;;7.90;99.90;;;;;;5044218;28;20017;-93
2022/06/02 01:16:46;;;;;;;5.55;4.25;;;7.80;99.90;;;;;;5045265;28;20044;-93
2022/06/02 01:19:32;;;;;;;7.25;5.03;;;7.80;99.90;;;;;;5049128;28;20022;-93
2022/06/02 01:22:09;;;;;;;5.43;4.25;;;7.80;99.90;;;;;;5051113;28;20064;-92
2022/06/02 01:24:56;;;;;;;6.93;4.25;;;7.80;99.90;;;;;;5049269;28;20038;-93
2022/06/02 01:27:43;;;;;;;6.47;4.65;;;7.70;99.90;;;;;;5050806;28;20068;-94
2022/06/02 01:30:49;;;;;;;7.95;4.53;;;7.70;99.90;;;;;;5049500;28;20034;-93
2022/06/02 01:33:25;;;;;;;5.38;4.00;;;7.70;99.90;;;;;;5038435;28;20030;-93
2022/06/02 01:36:12;;;;;;;6.85;4.60;;;7.70;99.90;;;;;;5046725;28;20034;-93
2022/06/02 01:38:44;;;;;;;6.60;4.70;;;7.60;99.90;;;;;;5045590;28;20068;-92
2022/06/02 01:41:28;;;;;;;5.82;4.25;;;7.60;99.90;;;;;;5047398;28;20038;-94
2022/06/02 01:44:03;;;;;;;6.18;4.28;;;7.60;99.90;;;;;;5044352;28;20092;-91
2022/06/02 01:46:38;;;;;;;6.20;4.72;;;7.60;99.90;;;;;;5043214;28;20026;-92
2022/06/02 01:49:13;;;;;;;6.47;4.57;;;7.50;99.90;;;;;;5043363;28;20026;-92
2022/06/02 01:51:48;;;;;;;7.18;4.60;;;7.50;99.90;;;;;;5049994;28;20100;-94
2022/06/02 01:54:41;;;;;;;4.97;4.22;;;7.40;99.90;;;;;;5046184;28;20017;-93
2022/06/02 01:57:39;;;;;;;7.15;4.10;;;7.40;99.90;;;;;;5042595;28;20070;-94
2022/06/02 02:00:10;;;;;;;7.20;4.30;;;7.40;99.90;;;;;;5026613;28;20037;-93
2022/06/02 02:02:45;;;;;;;10.73;4.43;;;7.40;99.90;;;;;;5042316;28;20031;-94
2022/06/02 02:05:29;;;;;;;5.50;4.03;;;7.40;99.90;;;;;;5042754;28;20093;-94
2022/06/02 02:08:13;;;;;;;6.32;4.13;;;7.30;99.90;;;;;;5042333;28;20068;-93
2022/06/02 02:10:43;;;;;;;7.22;4.22;;;7.20;99.90;;;;;;5041435;28;20029;-93
2022/06/02 02:13:27;;;;;;;5.40;3.83;;;7.20;99.90;;;;;;5041506;28;20489;-94
2022/06/02 02:16:31;;;;;;;5.05;4.10;;;7.20;99.90;;;;;;5054901;28;20026;-94
2022/06/02 02:19:06;;;;;;;8.65;4.50;;;7.10;99.90;;;;;;5058102;28;20013;-91
2022/06/02 02:21:59;;;;;;;7.13;3.95;;;7.10;99.90;;;;;;5053126;28;20037;-94
2022/06/02 02:24:53;;;;;;;6.07;4.40;;;7.10;99.90;;;;;;5055666;28;20033;-94
2022/06/02 02:27:20;;;;;;;6.15;3.92;;;7.00;99.90;;;;;;5047542;28;20030;-94
2022/06/02 02:30:04;;;;;;;6.00;4.03;;;7.00;99.90;;;;;;5040297;28;20037;-93
2022/06/02 02:33:03;;;;;;;6.65;4.30;;;7.00;99.90;;;;;;5040747;28;20022;-94
2022/06/02 02:35:41;;;;;;;5.72;4.07;;;7.00;99.90;;;;;;5039408;28;20037;-96
2022/06/02 02:38:37;;;;;;;6.45;4.28;;;7.00;99.90;;;;;;5038171;28;20033;-92
2022/06/02 02:41:09;;;;;;;7.53;5.03;;;7.00;99.90;;;;;;5042003;28;20049;-95
2022/06/02 02:43:54;;;;;;;6.60;4.28;;;7.00;99.90;;;;;;5041490;28;20471;-94
2022/06/02 02:46:53;;;;;;;6.72;4.50;;;6.90;99.90;;;;;;5042464;28;20124;-94
2022/06/02 02:49:24;;;;;;;5.85;4.40;;;6.90;99.90;;;;;;5042051;28;20459;-94
2022/06/02 02:52:27;;;;;;;5.22;4.13;;;6.90;99.90;;;;;;5041679;28;20033;-93
2022/06/02 02:55:04;;;;;;;7.07;4.53;;;6.80;99.90;;;;;;5040673;28;20036;-94
2022/06/02 02:57:51;;;;;;;6.95;4.40;;;6.80;99.90;;;;;;5040789;28;20040;-93
2022/06/02 03:00:26;;;;;;;5.25;4.22;;;6.80;99.90;;;;;;5041723;28;20034;-93
2022/06/02 03:03:10;;;;;;;6.85;4.22;;;6.80;99.90;;;;;;5040441;28;20025;-92
2022/06/02 03:06:10;;;;;;;7.20;4.63;;;6.70;99.90;;;;;;5039760;28;20021;-93
2022/06/02 03:08:45;;;;;;;6.53;4.32;;;6.70;99.90;;;;;;5042908;28;20022;-94
2022/06/02 03:11:57;;;;;;;6.47;4.93;;;6.60;99.90;;;;;;5043033;28;20080;-92
2022/06/02 03:14:41;;;;;;;8.18;4.57;;;6.60;99.90;;;;;;5045984;28;20037;-91
2022/06/02 03:17:25;;;;;;;7.40;4.75;;;6.50;99.90;;;;;;5024558;28;20041;-92
2022/06/02 03:20:09;;;;;;;12.80;4.68;;;6.50;99.90;;;;;;5023763;28;20044;-94
2022/06/02 03:22:56;;;;;;;7.13;4.70;;;6.40;99.90;;;;;;5023853;28;20113;-94
2022/06/02 03:25:40;;;;;;;6.18;4.30;;;6.30;99.90;;;;;;5024890;28;20026;-94
2022/06/02 03:28:37;;;;;;;10.40;5.43;;;6.30;99.90;;;;;;5040100;28;20025;-93
2022/06/02 03:31:28;;;;;;;7.13;4.95;;;6.20;99.90;;;;;;5034719;28;20045;-96
2022/06/02 03:34:52;;;;;;;8.15;5.03;;;6.20;99.90;;;;;;5039897;28;20121;-95
2022/06/02 03:37:41;;;;;;;7.43;5.00;;;6.10;99.90;;;;;;4960959;28;20039;-94
2022/06/02 03:40:30;;;;;;;8.20;5.20;;;6.00;99.90;;;;;;4944651;29;20039;-94
2022/06/02 03:43:38;;;;;;;8.13;5.03;;;6.00;99.90;;;;;;4952509;29;20099;-94
2022/06/02 03:46:15;;;;;;;7.60;4.78;;;5.90;99.90;;;;;;4957319;28;20036;-94
2022/06/02 03:49:17;;;;;;;7.65;4.50;;;5.90;99.90;;;;;;4946358;28;20201;-94
2022/06/02 03:52:06;;;;;;;7.30;5.50;;;5.90;99.90;;;;;;4963362;28;20035;-93
2022/06/02 03:54:32;;;;;;;8.45;4.88;;;5.80;99.90;;;;;;4963278;28;20037;-93
2022/06/02 03:57:22;;;;;;;8.85;5.22;;;5.80;99.90;;;;;;4962740;28;20158;-93
2022/06/02 04:00:07;;;;;;;6.68;4.65;;;5.80;99.90;;;;;;4962736;28;20057;-94
2022/06/02 04:02:51;;;;;;;6.47;4.68;;;5.80;99.90;;;;;;4978571;28;20447;-92
2022/06/02 04:05:27;;;;;;;11.80;6.05;;;5.80;99.90;;;;;;4962975;28;20030;-92
2022/06/02 04:08:07;;;;;;;11.40;6.55;;;5.70;99.90;;;;;;5004292;28;20160;-94
2022/06/02 04:10:53;;;;;;;12.50;6.15;;;5.60;99.90;;;;;;5039777;28;20033;-93
2022/06/02 04:13:53;;;;;;;8.35;5.78;;;5.60;99.90;;;;;;5036295;28;20030;-94
2022/06/02 04:16:55;;;;;;;12.07;5.55;;;5.60;99.90;;;;;;5020264;28;20094;-94
2022/06/02 04:22:42;;;;;;;10.47;5.67;;;5.60;99.90;;;;;;5040319;28;20029;-94
2022/06/02 04:25:32;;;;;;;7.97;5.20;;;5.50;99.90;;;;;;5042189;28;20275;-94
2022/06/02 04:28:25;;;;;;;15.38;6.03;;;5.40;99.90;;;;;;5027796;28;20034;-93
2022/06/02 04:31:06;;;;;;;8.45;5.03;;;5.40;99.90;;;;;;5023398;28;20037;-93
2022/06/02 04:33:33;;;;;;;9.13;5.22;;;5.40;99.90;;;;;;5024435;28;20045;-92
2022/06/02 04:36:35;;;;;;;7.80;5.15;;;5.30;99.90;;;;;;5042037;28;20052;-93
2022/06/02 04:39:03;;;;;;;8.23;5.85;;;5.30;99.90;;;;;;5026223;28;20037;-94
2022/06/02 04:41:42;;;;;;;7.25;5.07;;;5.40;99.90;;;;;;5025561;28;20025;-94
2022/06/02 04:44:38;;;;;;;8.25;5.72;;;5.40;99.90;;;;;;5044198;28;20022;-93
2022/06/02 04:47:12;;;;;;;8.70;5.68;;;5.40;99.90;;;;;;5043913;28;20506;-94
2022/06/02 04:49:40;;;;;;;9.90;5.38;;;5.40;99.90;;;;;;5044299;28;20048;-95
2022/06/02 04:52:25;;;;;;;13.52;5.53;;;5.40;99.90;;;;;;5045397;28;20042;-93
2022/06/02 04:55:17;;;;;;;9.32;5.30;;;5.40;99.90;;;;;;5043108;28;20032;-93
2022/06/02 04:57:52;;;;;;;7.50;5.32;;;5.30;99.90;;;;;;5043044;28;20053;-93
2022/06/02 05:00:26;;;;;;;6.75;4.95;;;5.30;99.90;;;;;;5043459;28;20022;-94
2022/06/02 05:03:15;;;;;;;7.45;5.38;;;5.20;99.90;;;;;;5044052;28;20025;-93
2022/06/02 05:05:53;;;;;;;7.55;5.53;;;5.30;99.90;;;;;;5046868;28;20028;-93
2022/06/02 05:08:47;;;;;;;8.93;5.28;;;5.30;99.90;;;;;;5047362;28;20034;-94
2022/06/02 05:11:39;;;;;;;7.53;5.57;;;5.30;99.90;;;;;;5047018;28;20069;-93
2022/06/02 05:14:11;;;;;;;8.05;5.32;;;5.40;99.90;;;;;;5048699;28;20033;-93
2022/06/02 05:17:04;;;;;;;9.00;6.28;;;5.40;99.90;;;;;;5049367;28;20029;-94
2022/06/02 05:19:34;;;;;;;8.25;5.57;;;5.40;99.90;;;;;;5046537;28;20022;-94
2022/06/02 05:22:37;;;;;;;8.50;5.65;;;5.40;99.90;;;;;;5045419;28;20501;-92
2022/06/02 05:25:15;;;;;;;11.15;6.60;;;5.50;99.90;;;;;;5046884;28;20117;-93
2022/06/02 05:27:56;;;;;;;8.45;6.10;;;5.50;99.90;;;;;;5049830;28;20048;-92
2022/06/02 05:30:36;;;;;;;8.88;6.38;;;5.50;99.90;;;;;;5052344;28;20135;-93
2022/06/02 05:33:08;;;;;;;10.30;7.05;;;5.50;99.90;;;;;;5052567;28;20057;-93
2022/06/02 05:35:54;;;;;;;9.90;7.30;;;5.50;99.90;;;;;;5055416;28;20037;-92
2022/06/02 05:38:29;;;;;;;13.48;8.30;;;5.60;99.90;;;;;;5051010;28;20036;-93
2022/06/02 05:41:13;;;;;;;12.77;7.43;;;5.70;99.90;;;;;;5049790;28;20486;-93
2022/06/02 05:44:01;;;;;;;12.18;7.70;;;5.70;99.90;;;;;;5046704;28;20041;-93
2022/06/02 05:46:38;;;;;;;11.10;7.40;;;5.70;99.90;;;;;;5047322;28;20037;-94
2022/06/02 05:49:25;;;;;;;11.35;7.22;;;5.80;99.90;;;;;;5045943;28;20034;-94
2022/06/02 05:52:10;;;;;;;11.20;7.47;;;5.90;99.90;;;;;;5046483;28;20113;-94
2022/06/02 05:55:05;;;;;;;11.55;7.43;;;6.00;99.90;;;;;;5046388;28;20025;-93
2022/06/02 05:57:34;;;;;;;10.52;7.50;;;6.00;99.90;;;;;;5045825;28;20032;-93
2022/06/02 06:00:11;;;;;;;11.75;7.95;;;6.20;99.90;;;;;;5045891;28;20489;-93
2022/06/02 06:02:59;;;;;;;12.35;7.55;;;6.20;99.90;;;;;;5046339;28;20029;-93
2022/06/02 06:05:52;;;;;;;12.50;8.88;;;6.30;99.90;;;;;;5046528;28;20067;-93
2022/06/02 06:08:40;;;;;;;10.20;6.55;;;6.40;99.90;;;;;;5051779;28;20080;-92
2022/06/02 06:11:09;;;;;;;14.45;8.68;;;6.50;99.90;;;;;;5049671;28;20033;-92
2022/06/02 06:13:46;;;;;;;12.93;8.07;;;6.60;99.90;;;;;;5049533;28;20025;-93
2022/06/02 06:16:47;;;;;;;11.68;8.18;;;6.70;99.90;;;;;;5047400;28;20022;-94
2022/06/02 06:19:48;;;;;;;14.30;8.18;;;6.80;99.90;;;;;;5043125;28;20045;-92
2022/06/02 06:22:39;;;;;;;12.43;7.85;;;6.90;99.90;;;;;;5038924;28;20029;-92
2022/06/02 06:25:22;;;;;;;13.73;8.50;;;7.00;99.90;;;;;;5044918;28;20029;-93
2022/06/02 06:28:06;;;;;;;22.10;10.30;;;7.20;99.90;;;;;;5044933;28;20036;-92
2022/06/02 06:31:00;;;;;;;15.32;8.77;;;7.30;99.90;;;;;;5044142;28;20049;-92
2022/06/02 06:33:38;;;;;;;12.18;7.63;;;7.40;99.90;;;;;;5053147;28;20053;-93
2022/06/02 06:36:07;;;;;;;16.45;9.95;;;7.40;99.90;;;;;;5056649;28;20044;-93
2022/06/02 06:38:45;;;;;;;16.15;8.98;;;7.60;99.90;;;;;;5058430;28;20033;-91
2022/06/02 06:41:42;;;;;;;15.05;9.70;;;7.60;99.90;;;;;;5057978;28;20029;-91
2022/06/02 06:44:39;;;;;;;15.45;10.10;;;7.80;99.90;;;;;;5057412;28;20061;-91
2022/06/02 06:47:21;;;;;;;18.25;10.30;;;7.90;99.90;;;;;;5039649;28;20032;-93
2022/06/02 06:49:53;;;;;;;19.42;10.45;;;8.10;99.90;;;;;;5041392;28;20064;-93
2022/06/02 06:52:24;;;;;;;17.25;10.63;;;8.20;99.90;;;;;;5041614;28;20071;-94
2022/06/02 06:55:08;;;;;;;20.02;10.68;;;8.30;99.90;;;;;;5043135;28;20017;-93
2022/06/02 06:58:04;;;;;;;20.92;11.75;;;8.40;99.90;;;;;;5042202;28;20033;-93
2022/06/02 07:00:46;;;;;;;21.67;11.88;;;8.60;99.90;;;;;;5029759;28;20040;-95
2022/06/02 07:03:39;;;;;;;20.38;10.93;;;8.70;99.90;;;;;;5041177;28;20021;-94
2022/06/02 07:06:49;;;;;;;18.60;11.23;;;8.90;99.90;;;;;;5039038;28;20395;-92
2022/06/02 07:09:52;;;;;;;19.80;11.90;;;9.00;99.90;;;;;;5039996;28;20025;-95
2022/06/02 07:15:20;;;;;;;20.45;12.88;;;9.30;99.90;;;;;;5041639;28;20041;-94
2022/06/02 07:18:07;;;;;;;24.40;14.13;;;9.40;99.90;;;;;;5040725;28;20064;-93
2022/06/02 07:20:45;;;;;;;23.17;12.50;;;9.60;99.90;;;;;;5045908;28;20021;-94
2022/06/02 07:23:36;;;;;;;22.45;13.00;;;9.80;99.90;;;;;;5039257;28;20125;-94
2022/06/02 07:26:13;;;;;;;18.00;11.63;;;9.90;99.90;;;;;;5041322;28;20208;-92
2022/06/02 07:28:51;;;;;;;17.45;11.32;;;10.00;99.90;;;;;;5043672;28;20539;-95
2022/06/02 07:31:20;;;;;;;17.92;10.68;;;10.20;99.90;;;;;;5039578;28;20084;-92
2022/06/02 07:34:06;;;;;;;21.02;12.18;;;10.30;99.90;;;;;;5022651;28;20050;-93
2022/06/02 07:36:38;;;;;;;23.33;11.40;;;10.50;99.90;;;;;;5038398;28;20132;-92
2022/06/02 07:39:07;;;;;;;14.70;8.50;;;10.70;99.90;;;;;;5038820;28;20021;-93
2022/06/02 07:41:50;;;;;;;15.90;10.70;;;10.80;99.90;;;;;;5039612;28;20045;-93
2022/06/02 07:44:47;;;;;;;11.18;7.13;;;11.00;99.90;;;;;;5045142;28;20021;-93
2022/06/02 07:47:23;;;;;;;18.50;10.82;;;11.10;99.90;;;;;;5039929;28;20029;-94
2022/06/02 07:50:04;;;;;;;18.92;11.00;;;11.30;99.90;;;;;;5038622;28;20034;-93
2022/06/02 07:53:08;;;;;;;19.35;11.25;;;11.50;99.90;;;;;;5040364;28;20056;-94
2022/06/02 07:55:56;;;;;;;18.90;11.63;;;11.70;99.90;;;;;;5035758;28;20053;-93
2022/06/02 07:58:44;;;;;;;18.73;11.90;;;11.80;99.90;;;;;;5037449;28;20032;-94
2022/06/02 08:01:50;;;;;;;15.60;9.05;;;12.00;99.90;;;;;;5039107;28;20048;-94
2022/06/02 08:04:39;;;;;;;18.40;11.45;;;12.30;99.90;;;;;;5038979;28;20040;-94
2022/06/02 08:07:33;;;;;;;16.67;11.70;;;12.50;99.90;;;;;;5037809;28;20471;-93
2022/06/02 08:10:19;;;;;;;18.45;12.13;;;12.70;99.90;;;;;;5038948;28;20052;-94
2022/06/02 08:13:10;;;;;;;15.82;11.48;;;13.00;99.90;;;;;;5038552;28;20018;-94
2022/06/02 08:15:49;;;;;;;16.05;11.13;;;13.20;99.90;;;;;;5037402;28;20022;-94
2022/06/02 08:18:25;;;;;;;20.00;11.05;;;13.40;99.90;;;;;;5036434;28;20411;-94
2022/06/02 08:21:16;;;;;;;15.07;10.43;;;13.60;99.90;;;;;;5037680;28;20029;-94
2022/06/02 08:23:54;;;;;;;15.73;10.70;;;13.80;99.90;;;;;;5043345;28;20057;-94
2022/06/02 08:26:35;;;;;;;16.40;10.48;;;14.00;99.90;;;;;;5039170;28;20116;-93
2022/06/02 08:29:32;;;;;;;17.25;9.63;;;14.20;99.90;;;;;;5039710;28;20018;-93
2022/06/02 08:32:42;;;;;;;13.75;10.02;;;14.40;99.90;;;;;;5045176;28;20029;-94
2022/06/02 08:35:22;;;;;;;12.07;8.63;;;14.60;99.90;;;;;;5042479;28;20045;-95
2022/06/02 08:37:55;;;;;;;;;;;14.70;99.90;;;;;;5039630;28;20076;-94
2022/06/02 08:40:45;;;;;;;16.42;8.93;;;14.90;99.90;;;;;;5044309;28;19905;-95
2022/06/02 08:43:33;;;;;;;11.10;8.10;;;15.10;99.90;;;;;;5044827;28;20025;-94
2022/06/02 08:46:20;;;;;;;11.90;8.73;;;15.30;99.90;;;;;;5043267;28;20033;-95
2022/06/02 08:49:38;;;;;;;10.95;8.05;;;15.50;99.90;;;;;;5042721;28;20021;-93
2022/06/02 08:52:18;;;;;;;11.75;7.45;;;15.70;99.90;;;;;;5020513;28;20036;-94
2022/06/02 08:55:08;;;;;;;13.52;7.50;;;15.80;99.90;;;;;;5026129;28;20044;-92
2022/06/02 08:58:05;;;;;;;10.35;7.50;;;16.00;99.90;;;;;;5035754;28;20041;-93
2022/06/02 09:00:45;;;;;;;10.23;6.75;;;16.20;99.90;;;;;;4955226;28;20123;-92
2022/06/02 09:03:30;;;;;;;10.65;7.65;;;16.40;99.90;;;;;;4955578;28;20099;-93
2022/06/02 09:06:05;;;;;;;11.15;7.38;;;16.50;99.40;;;;;;4962060;28;20421;-92
2022/06/02 09:09:06;;;;;;;9.25;6.13;;;16.70;98.20;;;;;;4965727;28;20102;-94
2022/06/02 09:11:40;;;;;;;8.70;6.85;;;16.80;96.80;;;;;;4951443;28;20043;-94
2022/06/02 09:14:27;;;;;;;11.30;7.82;;;16.80;95.00;;;;;;4964684;29;20035;-92
2022/06/02 09:17:07;;;;;;;11.15;7.13;;;16.80;94.80;;;;;;4949967;28;20039;-94
2022/06/02 09:19:58;;;;;;;10.38;7.13;;;17.00;94.10;;;;;;4952176;29;20058;-94
2022/06/02 09:22:24;;;;;;;8.52;6.45;;;17.20;93.70;;;;;;4952640;28;20026;-93
2022/06/02 09:24:54;;;;;;;7.65;6.05;;;17.30;92.40;;;;;;4962370;28;20465;-93
2022/06/02 09:27:38;;;;;;;8.55;5.80;;;17.30;91.60;;;;;;4961352;28;20027;-93
2022/06/02 09:30:11;;;;;;;9.32;6.90;;;17.30;91.30;;;;;;4961580;28;20626;-92
2022/06/02 09:36:36;;;;;;;9.45;5.78;;;17.70;90.30;;;;;;4977554;28;20058;-94
2022/06/02 09:39:54;;;;;;;8.50;6.63;;;17.90;88.90;;;;;;5037147;28;20030;-92
2022/06/02 09:42:59;;;;;;;7.78;5.97;;;18.10;87.60;;;;;;5019663;28;20071;-93
2022/06/02 09:45:52;;;;;;;6.15;4.75;;;18.20;86.60;;;;;;5035788;28;20486;-93
2022/06/02 09:48:44;;;;;;;6.43;4.30;;;18.10;85.00;;;;;;5020947;28;20021;-91
2022/06/02 09:51:43;;;;;;;11.85;4.82;;;18.10;84.70;;;;;;5010367;28;20048;-93
2022/06/02 09:54:18;;;;;;;6.85;5.15;;;18.20;82.40;;;;;;5022880;28;20029;-93
2022/06/02 09:57:04;;;;;;;6.82;5.60;;;18.20;82.00;;;;;;5027384;28;20029;-94
2022/06/02 09:59:38;;;;;;;8.88;5.82;;;18.10;82.00;;;;;;5035697;28;20080;-92
2022/06/02 10:02:23;;;;;;;6.45;4.80;;;18.20;81.90;;;;;;5035622;28;20052;-92
2022/06/02 10:04:58;;;;;;;8.18;4.70;;;18.30;81.60;;;;;;5020025;28;20033;-91
2022/06/02 10:08:08;;;;;;;6.40;4.55;;;18.50;81.50;;;;;;5018654;28;20025;-91
2022/06/02 10:10:54;;;;;;;3.70;3.33;;;18.60;79.00;;;;;;5005351;28;20041;-90
2022/06/02 10:13:47;;;;;;;5.10;2.60;;;18.60;78.00;;;;;;5018484;28;20033;-91
2022/06/02 10:16:54;;;;;;;7.43;4.40;;;18.30;74.30;;;;;;5036007;28;20038;-92
2022/06/02 10:19:38;;;;;;;4.55;3.70;;;18.10;74.50;;;;;;5034926;28;20029;-92
2022/06/02 10:22:22;;;;;;;5.15;3.60;;;18.10;75.80;;;;;;5036162;28;20022;-93
2022/06/02 10:25:20;;;;;;;3.80;3.00;;;18.10;75.80;;;;;;5036049;28;20033;-93
2022/06/02 10:27:58;;;;;;;5.90;3.78;;;18.10;75.60;;;;;;5035789;28;20014;-92
2022/06/02 10:30:53;;;;;;;5.55;3.83;;;18.10;75.20;;;;;;5035990;28;20092;-92
2022/06/02 10:33:41;;;;;;;4.10;3.05;;;18.10;75.30;;;;;;5035849;28;20045;-94
2022/06/02 10:36:25;;;;;;;5.55;3.40;;;18.10;74.90;;;;;;5036181;28;20034;-94
2022/06/02 10:39:29;;;;;;;6.30;4.13;;;18.20;75.10;;;;;;5036672;28;20025;-93
2022/06/02 10:42:22;;;;;;;4.30;2.72;;;18.20;75.10;;;;;;5038594;28;20025;-95
2022/06/02 10:45:09;;;;;;;4.60;3.10;;;18.20;75.30;;;;;;5036640;28;20028;-92
2022/06/02 10:48:23;;;;;;;4.85;3.22;;;18.30;75.40;;;;;;5035725;28;20026;-92
2022/06/02 10:51:10;;;;;;;4.22;2.60;;;18.40;74.80;;;;;;5029272;28;20522;-92
2022/06/02 10:54:10;;;;;;;4.00;3.00;;;18.60;73.40;;;;;;5037592;28;20064;-92
2022/06/02 10:56:39;;;;;;;;;;;18.70;72.50;;;;;;5057609;28;20017;-92
2022/06/02 10:59:34;;;;;;;4.05;2.67;;;19.00;72.10;;;;;;5056063;28;19897;-92
2022/06/02 11:02:38;;;;;;;4.20;3.20;;;19.20;71.40;;;;;;5053131;28;20041;-94
2022/06/02 11:05:40;;;;;;;3.55;3.00;;;19.40;70.00;;;;;;5051282;28;20029;-94
2022/06/02 11:08:45;;;;;;;4.15;3.75;;;19.40;69.50;;;;;;5046063;28;20391;-94
2022/06/02 11:11:29;;;;;;;4.65;3.22;;;19.40;69.30;;;;;;5037331;28;20048;-93
2022/06/02 11:13:57;;;;;;;3.92;2.72;;;19.50;69.30;;;;;;5036440;28;20052;-93
2022/06/02 11:16:47;;;;;;;3.63;2.88;;;19.50;69.50;;;;;;5035702;28;20021;-90
2022/06/02 11:19:42;;;;;;;4.05;2.85;;;19.40;69.70;;;;;;5035126;28;20041;-94
2022/06/02 11:22:29;;;;;;;2.83;2.50;;;19.40;69.90;;;;;;5027823;28;20034;-94
2022/06/02 11:25:32;;;;;;;5.10;2.78;;;19.70;70.00;;;;;;5035257;28;20095;-95
2022/06/02 11:28:19;;;;;;;3.35;2.45;;;20.00;69.20;;;;;;5035625;28;20035;-94
2022/06/02 11:31:42;;;;;;;3.60;2.72;;;20.30;68.90;;;;;;5034583;28;20132;-94
2022/06/02 11:34:26;;;;;;;4.72;2.65;;;20.50;67.90;;;;;;5017590;28;20132;-95
2022/06/02 11:37:08;;;;;;;3.67;3.03;;;20.70;67.00;;;;;;5018620;28;20467;-94
2022/06/02 11:39:36;;;;;;;2.97;2.38;;;20.80;66.40;;;;;;5034677;28;20106;-95
2022/06/02 11:42:02;;;;;;;2.78;2.22;;;21.00;65.50;;;;;;5021142;28;20033;-94
2022/06/02 11:44:40;;;;;;;5.38;2.58;;;21.30;65.20;;;;;;5025255;28;20056;-94
2022/06/02 11:47:06;;;;;;;2.55;2.00;;;21.40;64.10;;;;;;5035275;28;20101;-93
2022/06/02 11:49:49;;;;;;;2.53;2.25;;;21.70;63.80;;;;;;5021197;28;20060;-92
2022/06/02 11:52:38;;;;;;;4.10;2.95;;;21.80;62.60;;;;;;5017426;28;20057;-93
2022/06/02 11:55:09;;;;;;;4.55;2.92;;;22.00;61.90;;;;;;5023181;28;20037;-94
2022/06/02 11:57:53;;;;;;;2.50;2.03;;;22.00;61.00;;;;;;5017258;28;20140;-93
2022/06/02 12:00:46;;;;;;;1.90;1.58;;;22.00;60.90;;;;;;5017335;28;20041;-93
2022/06/02 12:03:17;;;;;;;2.75;2.22;;;22.10;60.70;;;;;;5017265;28;20080;-94
2022/06/02 12:06:21;;;;;;;4.45;2.58;;;22.30;60.50;;;;;;5033532;28;20487;-93
2022/06/02 12:08:53;;;;;;;2.55;2.25;;;22.30;59.40;;;;;;5034346;28;20470;-94
2022/06/02 12:11:19;;;;;;;2.38;2.15;;;22.30;59.30;;;;;;5034839;28;20538;-94
2022/06/02 12:13:52;;;;;;;2.63;2.35;;;22.30;59.20;;;;;;5034276;28;20026;-93
2022/06/02 12:16:38;;;;;;;1.92;1.83;;;22.40;58.90;;;;;;5034211;28;20037;-93
2022/06/02 12:19:28;;;;;;;3.90;2.40;;;22.60;58.20;;;;;;5033869;28;20187;-93
2022/06/02 12:22:10;;;;;;;4.57;2.30;;;22.60;57.50;;;;;;5034681;28;20338;-95
2022/06/02 12:24:57;;;;;;;2.33;1.95;;;22.60;57.20;;;;;;5034178;28;20494;-93
2022/06/02 12:27:38;;;;;;;2.63;2.28;;;22.70;56.60;;;;;;5034399;28;20026;-92
2022/06/02 12:30:19;;;;;;;;;;;22.80;56.10;;;;;;5035150;28;20094;-93
2022/06/02 12:33:14;;;;;;;3.45;2.17;;;23.00;56.10;;;;;;5039232;28;19916;-91
2022/06/02 12:36:14;;;;;;;2.70;2.00;;;23.20;56.00;;;;;;5034838;28;20047;-91
2022/06/02 12:39:01;;;;;;;4.60;2.13;;;23.30;55.50;;;;;;5034157;28;20029;-94
2022/06/02 12:41:42;;;;;;;3.10;2.58;;;23.50;55.50;;;;;;5038488;28;20025;-93
2022/06/02 12:44:44;;;;;;;2.15;1.83;;;23.80;55.30;;;;;;5043212;28;20163;-94
2022/06/02 12:47:23;;;;;;;3.60;2.15;;;24.00;55.00;;;;;;5040094;28;20028;-94
2022/06/02 12:50:07;;;;;;;3.78;2.40;;;24.00;54.10;;;;;;5038890;28;20095;-93
2022/06/02 12:52:49;;;;;;;3.22;1.92;;;23.90;53.80;;;;;;5038183;28;20037;-92
2022/06/02 12:55:24;;;;;;;2.72;1.42;;;24.10;54.10;;;;;;5037760;28;20499;-94
2022/06/02 12:58:21;;;;;;;1.95;1.77;;;24.30;54.10;;;;;;5037890;28;20029;-93
2022/06/02 13:00:50;;;;;;;2.53;1.88;;;24.50;51.60;;;;;;5037475;28;20029;-92
2022/06/02 13:04:02;;;;;;;2.40;1.67;;;24.40;51.00;;;;;;5038083;28;20021;-94
2022/06/02 13:07:04;;;;;;;2.72;1.85;;;24.70;51.20;;;;;;5037860;28;20045;-93
2022/06/02 13:09:49;;;;;;;2.97;2.30;;;25.10;51.00;;;;;;5037554;28;20057;-93
2022/06/02 13:12:51;;;;;;;2.88;1.95;;;25.30;50.60;;;;;;5038166;28;20446;-94
2022/06/02 13:15:35;;;;;;;2.85;1.90;;;25.40;50.60;;;;;;5037689;28;20124;-92
2022/06/02 13:18:38;;;;;;;1.70;1.38;;;25.50;49.80;;;;;;5037472;28;20048;-93
2022/06/02 13:21:26;;;;;;;1.77;1.48;;;25.60;49.80;;;;;;5037388;28;20028;-94
2022/06/02 13:24:14;;;;;;;3.25;2.20;;;25.40;49.20;;;;;;5037621;28;20128;-93
2022/06/02 13:27:04;;;;;;;2.92;1.85;;;25.20;48.60;;;;;;5037083;28;20026;-92
2022/06/02 13:30:04;;;;;;;2.75;1.70;;;25.00;49.10;;;;;;5036837;28;20487;-91
2022/06/02 13:33:06;;;;;;;2.95;1.42;;;24.80;49.80;;;;;;5037258;28;20028;-94
2022/06/02 13:35:50;;;;;;;2.88;1.65;;;24.80;49.90;;;;;;5037200;28;20041;-93
2022/06/02 13:38:24;;;;;;;2.67;1.88;;;24.60;50.10;;;;;;5037446;28;20041;-93
2022/06/02 13:41:03;;;;;;;3.45;2.08;;;24.40;50.50;;;;;;5037603;28;20031;-93
2022/06/02 13:43:49;;;;;;;3.35;1.98;;;24.00;50.80;;;;;;5038270;28;20040;-95
2022/06/02 13:46:45;;;;;;;1.98;1.58;;;23.80;51.50;;;;;;5037173;28;20403;-92
2022/06/02 13:49:36;;;;;;;2.67;1.70;;;23.60;51.50;;;;;;5036885;28;20017;-94
2022/06/02 13:52:19;;;;;;;2.65;1.98;;;23.20;51.00;;;;;;5037088;28;20026;-93
2022/06/02 13:58:44;;;;;;;3.45;2.47;;;22.60;52.40;;;;;;5052925;28;20045;-93
2022/06/02 14:01:41;;;;;;;3.60;2.20;;;22.40;53.50;;;;;;5035932;28;20038;-93
2022/06/02 14:04:28;;;;;;;3.42;2.40;;;22.40;54.20;;;;;;5031461;28;20029;-93
2022/06/02 14:07:24;;;;;;;4.10;2.83;;;22.40;54.50;;;;;;5036399;28;20021;-93
2022/06/02 14:10:26;;;;;;;3.63;2.50;;;22.40;54.60;;;;;;5019378;28;20076;-94
2022/06/02 14:13:12;;;;;;;2.70;2.25;;;22.30;54.70;;;;;;5018535;28;20487;-93
2022/06/02 14:15:53;;;;;;;3.10;2.03;;;22.50;55.20;;;;;;5036030;28;20117;-92
2022/06/02 14:18:37;;;;;;;;;;;22.60;55.40;;;;;;5019678;28;20128;-92
2022/06/02 14:21:23;;;;;;;2.95;2.53;;;22.70;55.40;;;;;;5018910;28;20393;-92
2022/06/02 14:24:12;;;;;;;4.00;2.60;;;22.60;55.20;;;;;;5035231;28;20072;-93
2022/06/02 14:27:00;;;;;;;2.83;2.20;;;22.30;54.70;;;;;;5033418;28;20048;-92
2022/06/02 14:29:40;;;;;;;2.30;2.08;;;22.10;55.30;;;;;;5021162;28;20037;-95
2022/06/02 14:32:37;;;;;;;2.72;1.98;;;22.00;56.10;;;;;;5020590;28;20056;-92
2022/06/02 14:35:40;;;;;;;3.55;2.45;;;21.90;56.20;;;;;;5028600;28;20037;-93
2022/06/02 14:38:20;;;;;;;2.50;2.28;;;21.80;56.20;;;;;;5053012;28;20049;-92
2022/06/02 14:41:09;;;;;;;3.50;2.50;;;21.70;56.70;;;;;;5055217;28;20090;-93